createdAt,value
2022-12-04T00:00:08.937Z,4.77
2022-12-04T00:02:36.246Z,5.13
2022-12-04T00:05:05.299Z,4.77
2022-12-04T00:07:32.234Z,5.00
2022-12-04T00:09:59.042Z,5.67
2022-12-04T00:12:26.057Z,6.03
2022-12-04T00:17:41.551Z,5.70
2022-12-04T00:20:16.580Z,5.47
2022-12-04T00:22:43.351Z,5.73
2022-12-04T00:25:10.317Z,5.37
2022-12-04T00:27:37.064Z,5.93
2022-12-04T00:30:04.321Z,5.07
2022-12-04T00:32:31.162Z,5.90
2022-12-04T00:34:58.018Z,5.53
2022-12-04T00:37:24.780Z,5.67
2022-12-04T00:39:51.687Z,6.60
2022-12-04T00:42:18.529Z,6.40
2022-12-04T00:44:45.294Z,4.97
2022-12-04T00:47:12.049Z,6.17
2022-12-04T00:49:38.809Z,5.63
2022-12-04T00:52:05.644Z,5.67
2022-12-04T00:54:32.430Z,5.50
2022-12-04T00:56:59.172Z,5.10
2022-12-04T00:59:25.965Z,6.20
2022-12-04T01:01:52.720Z,5.40
2022-12-04T01:04:19.829Z,5.90
2022-12-04T01:06:46.859Z,5.93
2022-12-04T01:09:13.674Z,6.00
2022-12-04T01:11:40.429Z,6.03
2022-12-04T01:14:07.281Z,5.37
2022-12-04T01:16:36.887Z,5.63
2022-12-04T01:19:05.401Z,5.60
2022-12-04T01:21:32.421Z,5.77
2022-12-04T01:23:59.784Z,7.07
2022-12-04T01:26:27.416Z,5.97
2022-12-04T01:28:54.369Z,6.13
2022-12-04T01:31:22.890Z,6.33
2022-12-04T01:33:50.328Z,6.67
2022-12-04T01:36:21.013Z,6.43
2022-12-04T01:38:47.968Z,6.90
2022-12-04T01:41:16.685Z,7.90
2022-12-04T01:43:43.790Z,7.00
2022-12-04T01:46:11.695Z,6.97
2022-12-04T01:48:46.742Z,8.43
2022-12-04T01:51:28.487Z,7.47
2022-12-04T01:54:00.756Z,7.70
2022-12-04T01:56:44.658Z,7.63
2022-12-04T01:59:13.244Z,7.53
2022-12-04T02:01:57.250Z,8.40
2022-12-04T02:04:24.372Z,7.60
2022-12-04T02:06:51.469Z,7.20
2022-12-04T02:09:24.636Z,7.90
2022-12-04T02:12:08.031Z,7.47
2022-12-04T02:14:53.106Z,7.70
2022-12-04T02:17:33.326Z,8.23
2022-12-04T02:20:17.695Z,7.33
2022-12-04T02:23:09.466Z,7.30
2022-12-04T02:25:48.370Z,7.07
2022-12-04T02:28:31.535Z,8.10
2022-12-04T02:31:01.280Z,7.30
2022-12-04T02:33:41.433Z,8.00
2022-12-04T02:36:15.369Z,8.00
2022-12-04T02:38:47.322Z,7.17
2022-12-04T02:42:05.162Z,8.20
2022-12-04T02:44:38.713Z,8.57
2022-12-04T02:47:12.587Z,9.07
2022-12-04T02:49:46.955Z,8.83
2022-12-04T02:52:20.971Z,8.90
2022-12-04T02:54:53.060Z,9.60
2022-12-04T02:57:25.783Z,10.33
2022-12-04T02:59:55.098Z,9.60
2022-12-04T03:02:29.699Z,10.73
2022-12-04T03:05:00.272Z,8.87
2022-12-04T03:07:54.124Z,11.17
2022-12-04T03:10:38.570Z,9.70
2022-12-04T03:13:14.116Z,10.10
2022-12-04T03:15:50.529Z,10.60
2022-12-04T03:18:28.622Z,11.13
2022-12-04T03:21:02.682Z,10.67
2022-12-04T03:23:35.388Z,13.13
2022-12-04T03:26:09.822Z,11.50
2022-12-04T03:28:59.685Z,11.70
2022-12-04T03:31:47.974Z,12.80
2022-12-04T03:34:25.251Z,11.77
2022-12-04T03:37:05.964Z,12.20
2022-12-04T03:39:44.385Z,11.30
2022-12-04T03:42:21.703Z,11.67
2022-12-04T03:45:20.086Z,11.33
2022-12-04T03:48:01.360Z,11.10
2022-12-04T03:50:43.017Z,12.00
2022-12-04T03:53:20.838Z,11.67
2022-12-04T03:56:02.032Z,12.67
2022-12-04T03:58:32.566Z,11.13
2022-12-04T04:01:01.378Z,11.67
2022-12-04T04:03:34.102Z,11.33
2022-12-04T04:06:09.630Z,11.47
2022-12-04T04:08:40.665Z,11.63
2022-12-04T04:11:31.082Z,12.03
2022-12-04T04:14:26.258Z,12.00
2022-12-04T04:17:20.776Z,12.33
2022-12-04T04:20:12.817Z,12.37
2022-12-04T04:22:59.377Z,12.80
2022-12-04T04:25:28.411Z,12.80
2022-12-04T04:27:57.027Z,12.77
2022-12-04T04:30:24.919Z,11.80
2022-12-04T04:33:13.211Z,11.03
2022-12-04T04:35:53.460Z,11.23
2022-12-04T04:38:44.831Z,11.07
2022-12-04T04:41:16.308Z,11.47
2022-12-04T04:43:58.449Z,12.50
2022-12-04T04:46:33.398Z,11.97
2022-12-04T04:49:03.954Z,12.27
2022-12-04T04:51:33.916Z,12.73
2022-12-04T04:54:06.448Z,13.43
2022-12-04T04:56:44.298Z,11.87
2022-12-04T04:59:11.675Z,12.10
2022-12-04T05:01:39.644Z,12.63
2022-12-04T05:04:07.418Z,13.07
2022-12-04T05:06:34.539Z,10.77
2022-12-04T05:09:01.403Z,11.60
2022-12-04T05:11:28.533Z,11.73
2022-12-04T05:13:55.340Z,12.30
2022-12-04T05:16:22.677Z,11.70
2022-12-04T05:19:08.441Z,11.37
2022-12-04T05:21:35.762Z,12.13
2022-12-04T05:24:02.557Z,12.70
2022-12-04T05:26:29.439Z,11.60
2022-12-04T05:28:56.197Z,11.90
2022-12-04T05:31:23.045Z,11.87
2022-12-04T05:33:49.792Z,13.17
2022-12-04T05:36:16.585Z,10.80
2022-12-04T05:38:43.465Z,12.67
2022-12-04T05:41:10.633Z,12.20
2022-12-04T05:43:37.514Z,11.83
2022-12-04T05:46:06.782Z,10.97
2022-12-04T05:48:35.531Z,11.13
2022-12-04T05:51:10.430Z,11.43
2022-12-04T05:53:38.363Z,11.37
2022-12-04T05:56:07.405Z,11.47
2022-12-04T05:58:36.523Z,10.07
2022-12-04T06:01:15.961Z,11.43
2022-12-04T06:03:42.960Z,11.20
2022-12-04T06:06:36.077Z,10.83
2022-12-04T06:09:03.409Z,10.70
2022-12-04T06:11:33.645Z,9.83
2022-12-04T06:14:01.900Z,9.70
2022-12-04T06:16:31.952Z,11.10
2022-12-04T06:19:02.422Z,11.03
2022-12-04T06:21:31.924Z,10.77
2022-12-04T06:23:59.027Z,10.07
2022-12-04T06:26:26.520Z,9.80
2022-12-04T06:28:57.622Z,10.20
2022-12-04T06:31:27.020Z,10.63
2022-12-04T06:33:55.518Z,10.07
2022-12-04T06:36:22.824Z,10.60
2022-12-04T06:38:50.880Z,10.40
2022-12-04T06:41:21.108Z,9.10
2022-12-04T06:43:48.672Z,9.67
2022-12-04T06:46:19.190Z,10.20
2022-12-04T06:48:46.349Z,10.27
2022-12-04T06:51:30.953Z,9.23
2022-12-04T06:53:58.525Z,9.93
2022-12-04T06:56:28.583Z,9.40
2022-12-04T06:58:57.833Z,11.13
2022-12-04T07:01:27.432Z,10.10
2022-12-04T07:03:55.677Z,9.50
2022-12-04T07:06:28.442Z,11.17
2022-12-04T07:09:00.560Z,10.50
2022-12-04T07:11:27.354Z,9.40
2022-12-04T07:13:54.959Z,9.80
2022-12-04T07:16:23.761Z,9.73
2022-12-04T07:18:53.725Z,9.37
2022-12-04T07:21:22.977Z,10.10
2022-12-04T07:23:51.577Z,10.07
2022-12-04T07:26:19.429Z,9.77
2022-12-04T07:28:46.823Z,10.20
2022-12-04T07:31:16.718Z,10.17
2022-12-04T07:33:43.905Z,9.93
2022-12-04T07:36:13.715Z,10.57
2022-12-04T07:38:41.460Z,10.07
2022-12-04T07:41:10.938Z,10.47
2022-12-04T07:43:38.225Z,11.63
2022-12-04T07:46:08.234Z,11.27
2022-12-04T07:48:35.106Z,10.97
2022-12-04T07:51:14.797Z,13.33
2022-12-04T07:53:42.275Z,13.20
2022-12-04T07:56:10.489Z,11.63
2022-12-04T07:58:37.372Z,12.20
2022-12-04T08:01:16.509Z,13.90
2022-12-04T08:03:48.178Z,13.67
2022-12-04T08:06:19.632Z,12.90
2022-12-04T08:08:47.609Z,14.53
2022-12-04T08:11:16.676Z,14.77
2022-12-04T08:13:44.190Z,13.43
2022-12-04T08:16:12.317Z,13.80
2022-12-04T08:18:40.035Z,14.03
2022-12-04T08:21:12.851Z,15.33
2022-12-04T08:23:41.366Z,14.43
2022-12-04T08:26:08.933Z,14.03
2022-12-04T08:28:38.044Z,16.90
2022-12-04T08:31:14.050Z,15.93
2022-12-04T08:33:42.150Z,17.57
2022-12-04T08:36:11.594Z,18.17
2022-12-04T08:38:38.864Z,17.00
2022-12-04T08:41:08.263Z,15.40
2022-12-04T08:43:35.152Z,16.33
2022-12-04T08:46:08.242Z,16.93
2022-12-04T08:48:35.262Z,18.33
2022-12-04T08:51:04.318Z,18.67
2022-12-04T08:53:32.047Z,17.13
2022-12-04T08:56:01.159Z,17.90
2022-12-04T08:58:28.479Z,18.83
2022-12-04T09:00:56.084Z,19.93
2022-12-04T09:03:27.681Z,17.83
2022-12-04T09:06:00.347Z,19.23
2022-12-04T09:08:27.524Z,19.77
2022-12-04T09:10:54.355Z,19.50
2022-12-04T09:13:21.134Z,20.40
2022-12-04T09:15:47.989Z,18.97
2022-12-04T09:18:14.873Z,19.60
2022-12-04T09:20:41.614Z,20.27
2022-12-04T09:23:08.357Z,20.20
2022-12-04T09:25:36.859Z,20.83
2022-12-04T09:28:04.592Z,21.03
2022-12-04T09:30:31.456Z,19.77
2022-12-04T09:32:58.372Z,19.83
2022-12-04T09:35:25.156Z,20.70
2022-12-04T09:37:51.924Z,20.73
2022-12-04T09:40:48.605Z,20.40
2022-12-04T09:43:30.271Z,20.63
2022-12-04T09:46:02.498Z,19.93
2022-12-04T09:48:36.184Z,19.93
2022-12-04T09:51:06.711Z,19.40
2022-12-04T09:53:45.281Z,20.40
2022-12-04T09:56:16.159Z,20.80
2022-12-04T09:58:51.925Z,20.17
2022-12-04T10:01:21.895Z,21.80
2022-12-04T10:03:50.313Z,21.60
2022-12-04T10:06:32.317Z,21.53
2022-12-04T10:09:09.797Z,20.03
2022-12-04T10:11:42.439Z,21.47
2022-12-04T10:14:47.041Z,20.57
2022-12-04T10:17:41.717Z,21.10
2022-12-04T10:20:40.303Z,21.37
2022-12-04T10:23:33.201Z,20.47
2022-12-04T10:26:03.283Z,21.27
2022-12-04T10:28:35.013Z,22.17
2022-12-04T10:31:04.011Z,20.70
2022-12-04T10:33:51.633Z,20.93
2022-12-04T10:36:22.071Z,20.33
2022-12-04T10:39:04.669Z,21.40
2022-12-04T10:41:45.926Z,21.07
2022-12-04T10:44:16.063Z,22.57
2022-12-04T10:46:45.944Z,20.73
2022-12-04T10:49:24.223Z,22.57
2022-12-04T10:51:52.164Z,22.90
2022-12-04T10:54:23.045Z,20.63
2022-12-04T10:57:07.789Z,22.37
2022-12-04T10:59:35.880Z,20.20
2022-12-04T11:02:31.946Z,23.87
2022-12-04T11:05:03.265Z,23.70
2022-12-04T11:07:44.195Z,22.87
2022-12-04T11:10:26.357Z,23.53
2022-12-04T11:13:02.597Z,23.17
2022-12-04T11:15:30.596Z,24.67
2022-12-04T11:18:26.767Z,22.83
2022-12-04T11:20:59.391Z,23.57
2022-12-04T11:23:29.942Z,23.97
2022-12-04T11:26:05.161Z,24.23
2022-12-04T11:28:41.798Z,23.27
2022-12-04T11:31:16.058Z,24.43
2022-12-04T11:33:54.767Z,24.40
2022-12-04T11:36:27.458Z,23.93
2022-12-04T11:39:18.674Z,21.93
2022-12-04T11:41:45.613Z,22.00
2022-12-04T11:44:26.965Z,22.60
2022-12-04T11:46:56.792Z,21.03
2022-12-04T11:49:25.963Z,21.73
2022-12-04T11:51:58.696Z,21.17
2022-12-04T11:54:28.507Z,20.37
2022-12-04T11:57:16.412Z,20.50
2022-12-04T12:00:17.728Z,22.00
2022-12-04T12:03:05.849Z,21.57
2022-12-04T12:06:00.237Z,18.60
2022-12-04T12:08:53.067Z,20.07
2022-12-04T12:11:28.189Z,20.53
2022-12-04T12:14:07.219Z,21.13
2022-12-04T12:19:45.336Z,21.90
2022-12-04T12:22:21.874Z,20.40
2022-12-04T12:24:56.253Z,20.67
2022-12-04T12:28:04.613Z,19.90
2022-12-04T12:31:02.495Z,18.80
2022-12-04T12:33:43.056Z,18.20
2022-12-04T12:36:13.014Z,18.73
2022-12-04T12:38:45.738Z,18.30
2022-12-04T12:41:24.201Z,21.63
2022-12-04T12:44:02.983Z,21.23
2022-12-04T12:46:37.415Z,18.57
2022-12-04T12:49:13.818Z,19.23
2022-12-04T12:52:05.699Z,18.37
2022-12-04T12:54:55.869Z,18.90
2022-12-04T13:00:15.189Z,18.13
2022-12-04T13:02:54.137Z,19.17
2022-12-04T13:05:27.582Z,18.33
2022-12-04T13:08:20.118Z,16.33
2022-12-04T13:11:16.068Z,17.73
2022-12-04T13:14:03.835Z,18.33
2022-12-04T13:16:45.743Z,17.20
2022-12-04T13:19:23.180Z,17.77
2022-12-04T13:21:55.845Z,17.00
2022-12-04T13:24:37.505Z,17.23
2022-12-04T13:27:27.823Z,17.53
2022-12-04T13:30:14.524Z,17.83
2022-12-04T13:33:02.633Z,15.67
2022-12-04T13:35:35.454Z,15.87
2022-12-04T13:38:14.102Z,16.90
2022-12-04T13:40:51.305Z,16.40
2022-12-04T13:44:00.643Z,18.83
2022-12-04T13:46:42.476Z,16.50
2022-12-04T13:49:18.536Z,17.80
2022-12-04T13:51:47.418Z,16.07
2022-12-04T13:54:14.191Z,15.97
2022-12-04T13:56:46.185Z,15.03
2022-12-04T13:59:28.410Z,16.27
2022-12-04T14:01:58.027Z,15.93
2022-12-04T14:04:46.033Z,16.83
2022-12-04T14:07:34.491Z,14.60
2022-12-04T14:10:22.951Z,15.13
2022-12-04T14:13:02.142Z,15.53
2022-12-04T14:15:32.636Z,15.73
2022-12-04T14:18:11.585Z,14.17
2022-12-04T14:20:39.978Z,13.23
2022-12-04T14:23:15.813Z,14.17
2022-12-04T14:25:42.661Z,12.93
2022-12-04T14:28:42.193Z,13.57
2022-12-04T14:31:28.246Z,12.53
2022-12-04T14:34:27.143Z,13.17
2022-12-04T14:36:56.628Z,13.50
2022-12-04T14:39:45.289Z,14.03
2022-12-04T14:42:33.365Z,16.70
2022-12-04T14:45:02.573Z,16.37
2022-12-04T14:48:03.256Z,13.20
2022-12-04T14:51:02.268Z,13.23
2022-12-04T14:53:48.992Z,13.40
2022-12-04T14:56:26.251Z,12.97
2022-12-04T14:58:53.398Z,14.27
2022-12-04T15:01:29.774Z,12.80
2022-12-04T15:04:01.090Z,12.23
2022-12-04T15:06:33.256Z,13.57
2022-12-04T15:09:21.211Z,14.73
2022-12-04T15:12:15.823Z,13.47
2022-12-04T15:14:47.933Z,12.43
2022-12-04T15:17:17.722Z,13.90
2022-12-04T15:19:44.808Z,13.97
2022-12-04T15:22:28.250Z,14.53
2022-12-04T15:24:56.231Z,15.30
2022-12-04T15:27:32.098Z,14.43
2022-12-04T15:30:02.008Z,14.30
2022-12-04T15:32:31.075Z,12.97
2022-12-04T15:35:02.945Z,17.53
2022-12-04T15:37:31.582Z,14.83
2022-12-04T15:39:59.627Z,13.33
2022-12-04T15:42:30.481Z,14.63
2022-12-04T15:45:07.403Z,14.73
2022-12-04T15:47:41.620Z,15.67
2022-12-04T15:50:15.581Z,14.17
2022-12-04T15:53:09.879Z,14.00
2022-12-04T15:55:48.905Z,14.67
2022-12-04T15:58:22.808Z,14.40
2022-12-04T16:01:05.281Z,14.93
2022-12-04T16:03:43.146Z,16.30
2022-12-04T16:06:33.416Z,14.53
2022-12-04T16:09:17.241Z,14.80
2022-12-04T16:11:44.178Z,15.03
2022-12-04T16:14:15.659Z,13.97
2022-12-04T16:16:47.001Z,14.27
2022-12-04T16:19:33.656Z,13.07
2022-12-04T16:22:02.885Z,14.60
2022-12-04T16:24:29.865Z,15.47
2022-12-04T16:26:58.206Z,16.43
2022-12-04T16:29:25.008Z,15.47
2022-12-04T16:31:52.257Z,13.53
2022-12-04T16:34:19.135Z,14.40
2022-12-04T16:36:46.027Z,15.20
2022-12-04T16:39:12.837Z,14.73
2022-12-04T16:41:40.454Z,14.37
2022-12-04T16:44:14.148Z,15.93
2022-12-04T16:46:41.416Z,13.53
2022-12-04T16:49:12.850Z,13.70
2022-12-04T16:51:45.834Z,13.60
2022-12-04T16:54:13.938Z,14.03
2022-12-04T16:56:41.002Z,13.70
2022-12-04T16:59:11.966Z,13.00
2022-12-04T17:01:46.751Z,12.80
2022-12-04T17:04:14.225Z,12.40
2022-12-04T17:06:41.389Z,12.33
2022-12-04T17:09:08.322Z,11.80
2022-12-04T17:11:35.856Z,11.43
2022-12-04T17:14:06.988Z,10.73
2022-12-04T17:16:38.644Z,10.53
2022-12-04T17:19:05.619Z,8.97
2022-12-04T17:21:32.514Z,9.43
2022-12-04T17:23:59.308Z,8.47
2022-12-04T17:26:26.898Z,9.03
2022-12-04T17:28:54.007Z,7.97
2022-12-04T17:31:27.437Z,8.40
2022-12-04T17:33:56.196Z,7.73
2022-12-04T17:36:25.773Z,8.00
2022-12-04T17:38:57.497Z,8.20
2022-12-04T17:41:25.047Z,7.77
2022-12-04T17:43:51.861Z,7.50
2022-12-04T17:46:24.333Z,8.40
2022-12-04T17:48:51.582Z,8.50
2022-12-04T17:51:23.383Z,8.87
2022-12-04T17:53:50.484Z,8.30
2022-12-04T17:56:20.396Z,7.97
2022-12-04T17:58:48.022Z,9.33
2022-12-04T18:01:23.991Z,9.97
2022-12-04T18:03:56.321Z,9.70
2022-12-04T18:06:24.123Z,12.37
2022-12-04T18:08:51.613Z,10.27
2022-12-04T18:11:21.012Z,10.23
2022-12-04T18:13:49.121Z,9.97
2022-12-04T18:16:16.055Z,11.07
2022-12-04T18:18:43.995Z,11.00
2022-12-04T18:21:12.614Z,13.93
2022-12-04T18:23:47.189Z,13.17
2022-12-04T18:26:19.490Z,13.50
2022-12-04T18:28:47.148Z,13.53
2022-12-04T18:31:15.455Z,13.57
2022-12-04T18:33:43.448Z,12.67
2022-12-04T18:36:17.756Z,13.63
2022-12-04T18:38:46.029Z,13.93
2022-12-04T18:41:14.530Z,11.37
2022-12-04T18:43:44.686Z,11.67
2022-12-04T18:46:13.740Z,11.03
2022-12-04T18:48:41.666Z,11.10
2022-12-04T18:51:21.958Z,11.67
2022-12-04T18:53:49.567Z,11.37
2022-12-04T18:56:17.560Z,13.20
2022-12-04T18:58:46.545Z,12.90
2022-12-04T19:01:16.176Z,11.77
2022-12-04T19:03:43.154Z,11.93
2022-12-04T19:06:10.178Z,11.50
2022-12-04T19:08:42.678Z,12.33
2022-12-04T19:11:15.603Z,12.00
2022-12-04T19:13:42.987Z,13.80
2022-12-04T19:16:15.012Z,13.60
2022-12-04T19:18:45.226Z,13.63
2022-12-04T19:21:13.799Z,12.70
2022-12-04T19:23:41.501Z,13.13
2022-12-04T19:26:08.558Z,14.03
2022-12-04T19:28:35.929Z,13.63
2022-12-04T19:31:03.342Z,15.70
2022-12-04T19:33:30.665Z,15.20
2022-12-04T19:36:02.826Z,14.23
2022-12-04T19:38:31.078Z,17.50
2022-12-04T19:41:11.531Z,15.07
2022-12-04T19:43:42.174Z,16.50
2022-12-04T19:46:11.955Z,15.83
2022-12-04T19:48:39.166Z,16.23
2022-12-04T19:51:10.496Z,18.50
2022-12-04T19:56:35.155Z,14.50
2022-12-04T19:59:04.702Z,17.40
2022-12-04T20:01:32.310Z,15.17
2022-12-04T20:04:05.213Z,16.67
2022-12-04T20:06:40.321Z,18.77
2022-12-04T20:09:10.610Z,16.57
2022-12-04T20:11:38.411Z,16.40
2022-12-04T20:14:06.689Z,15.50
2022-12-04T20:16:35.151Z,18.10
2022-12-04T20:19:06.242Z,18.50
2022-12-04T20:21:34.151Z,15.20
2022-12-04T20:24:03.377Z,18.33
2022-12-04T20:26:38.021Z,16.90
2022-12-04T20:29:07.196Z,17.27
2022-12-04T20:31:37.261Z,18.53
2022-12-04T20:34:07.212Z,14.97
2022-12-04T20:36:39.634Z,16.33
2022-12-04T20:39:07.419Z,16.80
2022-12-04T20:41:35.731Z,18.60
2022-12-04T20:44:07.092Z,19.20
2022-12-04T20:46:36.698Z,16.87
2022-12-04T20:49:06.371Z,16.53
2022-12-04T20:54:26.637Z,19.50
2022-12-04T20:56:54.051Z,19.33
2022-12-04T20:59:22.706Z,19.33
2022-12-04T21:01:51.603Z,18.47
2022-12-04T21:04:19.268Z,19.63
2022-12-04T21:06:47.148Z,19.67
2022-12-04T21:09:18.070Z,18.57
2022-12-04T21:11:47.784Z,18.30
2022-12-04T21:14:36.583Z,20.67
2022-12-04T21:17:06.856Z,21.07
2022-12-04T21:19:33.822Z,19.67
2022-12-04T21:22:00.685Z,20.57
2022-12-04T21:24:28.658Z,19.67
2022-12-04T21:26:55.917Z,19.67
2022-12-04T21:29:23.539Z,21.07
2022-12-04T21:31:50.991Z,23.23
2022-12-04T21:34:18.318Z,22.43
2022-12-04T21:36:47.035Z,21.93
2022-12-04T21:39:15.106Z,20.77
2022-12-04T21:42:00.942Z,21.17
2022-12-04T21:44:28.006Z,21.33
2022-12-04T21:46:55.070Z,20.87
2022-12-04T21:49:22.442Z,22.93
2022-12-04T21:51:57.214Z,22.80
2022-12-04T21:54:25.847Z,20.13
2022-12-04T21:56:52.752Z,19.87
2022-12-04T21:59:19.661Z,20.87
2022-12-04T22:01:46.551Z,19.47
2022-12-04T22:04:13.567Z,18.63
2022-12-04T22:06:40.521Z,18.67
2022-12-04T22:09:10.083Z,19.40
2022-12-04T22:11:37.662Z,18.87
2022-12-04T22:14:04.810Z,17.23
2022-12-04T22:16:36.907Z,19.10
2022-12-04T22:19:07.055Z,18.20
2022-12-04T22:21:33.836Z,20.80
2022-12-04T22:24:02.436Z,18.70
2022-12-04T22:26:30.224Z,17.73
2022-12-04T22:28:57.724Z,18.50
2022-12-04T22:31:26.469Z,18.03
2022-12-04T22:33:56.032Z,17.97
2022-12-04T22:36:26.671Z,18.07
2022-12-04T22:39:10.422Z,18.27
2022-12-04T22:41:38.008Z,17.37
2022-12-04T22:44:05.658Z,18.30
2022-12-04T22:46:33.075Z,19.23
2022-12-04T22:49:00.329Z,18.83
2022-12-04T22:51:27.667Z,18.53
2022-12-04T22:53:57.572Z,17.77
2022-12-04T22:56:30.569Z,19.90
2022-12-04T22:58:58.489Z,18.83
2022-12-04T23:01:30.396Z,18.03
2022-12-04T23:03:58.207Z,20.90
2022-12-04T23:06:27.351Z,19.30
2022-12-04T23:09:04.892Z,20.83
2022-12-04T23:11:31.764Z,19.77
2022-12-04T23:14:01.003Z,20.03
2022-12-04T23:16:29.480Z,20.10
2022-12-04T23:18:57.140Z,18.60
2022-12-04T23:21:24.893Z,20.37
2022-12-04T23:23:53.253Z,19.53
2022-12-04T23:26:23.570Z,18.63
2022-12-04T23:28:50.767Z,19.00
2022-12-04T23:31:18.350Z,19.47
2022-12-04T23:33:45.349Z,20.03
2022-12-04T23:36:13.717Z,19.47
2022-12-04T23:38:41.865Z,20.07
2022-12-04T23:41:11.336Z,19.13
2022-12-04T23:43:38.800Z,19.40
2022-12-04T23:46:10.880Z,19.70
2022-12-04T23:48:38.890Z,18.77
2022-12-04T23:51:05.968Z,20.37
2022-12-04T23:53:32.739Z,21.47
2022-12-04T23:56:03.010Z,18.73
2022-12-04T23:58:30.938Z,18.03
